Time;durP1;ratioP1;P1;durP2;ratioP2;P2;SDS_P1;SDS_P2;PMS_P1;PMS_P2;Temp;Humidity;BMP_temperature;BMP_pressure;BME280_temperature;BME280_humidity;BME280_pressure;Samples;Min_cycle;Max_cycle;Signal;HPM_P1;HPM_P2
2022/05/18 00:00:51;;;;;;;5.45;2.15;;;;;;;;;;5055710;28;20103;-54
2022/05/18 00:03:20;;;;;;;3.67;2.20;;;;;;;;;;5051421;28;20056;-55
2022/05/18 00:05:46;;;;;;;2.88;2.22;;;;;;;;;;5064209;28;20033;-53
2022/05/18 00:08:12;;;;;;;2.88;1.90;;;;;;;;;;5043429;28;20026;-54
2022/05/18 00:10:39;;;;;;;3.42;2.53;;;;;;;;;;5048759;28;20033;-52
2022/05/18 00:13:06;;;;;;;4.47;2.05;;;;;;;;;;5046025;28;20032;-51
2022/05/18 00:15:32;;;;;;;4.18;2.20;;;;;;;;;;5053731;28;20036;-53
2022/05/18 00:17:58;;;;;;;2.10;1.90;;;;;;;;;;5050533;28;20041;-51
2022/05/18 00:20:24;;;;;;;2.97;2.00;;;;;;;;;;5056828;28;20043;-53
2022/05/18 00:22:52;;;;;;;2.13;1.45;;;;;;;;;;5047947;28;20029;-52
2022/05/18 00:25:19;;;;;;;3.63;1.70;;;;;;;;;;5053316;28;20033;-53
2022/05/18 00:27:45;;;;;;;3.03;1.67;;;;;;;;;;5049553;28;20035;-53
2022/05/18 00:30:12;;;;;;;5.28;1.60;;;;;;;;;;5055518;28;20602;-54
2022/05/18 00:32:38;;;;;;;2.65;1.40;;;;;;;;;;5041660;28;20033;-51
2022/05/18 00:35:05;;;;;;;2.97;1.90;;;;;;;;;;5052313;28;20025;-53
2022/05/18 00:37:31;;;;;;;3.38;1.80;;;;;;;;;;5047665;28;20025;-56
2022/05/18 00:39:57;;;;;;;2.70;1.67;;;;;;;;;;5047885;28;20094;-52
2022/05/18 00:42:24;;;;;;;4.82;1.75;;;;;;;;;;5044945;28;20025;-53
2022/05/18 00:44:50;;;;;;;6.95;1.83;;;;;;;;;;5050156;28;20463;-51
2022/05/18 00:47:16;;;;;;;5.15;1.60;;;;;;;;;;5046791;28;20025;-52
2022/05/18 00:49:45;;;;;;;3.85;1.90;;;;;;;;;;5050444;28;20029;-52
2022/05/18 00:52:11;;;;;;;5.18;1.58;;;;;;;;;;5056000;28;20041;-51
2022/05/18 00:54:37;;;;;;;3.75;1.80;;;;;;;;;;5051260;28;20120;-52
2022/05/18 00:57:08;;;;;;;4.95;1.88;;;;;;;;;;5044562;28;20033;-53
2022/05/18 00:59:38;;;;;;;2.85;1.83;;;;;;;;;;5056340;28;20457;-54
2022/05/18 01:02:05;;;;;;;2.42;1.70;;;;;;;;;;5048416;28;20025;-51
2022/05/18 01:04:31;;;;;;;3.47;1.63;;;;;;;;;;5056589;28;20526;-51
2022/05/18 01:07:04;;;;;;;3.85;1.60;;;;;;;;;;5050878;28;20032;-54
2022/05/18 01:09:35;;;;;;;3.60;1.83;;;;;;;;;;5040061;28;20047;-53
2022/05/18 01:12:02;;;;;;;6.25;1.73;;;;;;;;;;5044367;28;20017;-52
2022/05/18 01:14:31;;;;;;;2.30;1.88;;;;;;;;;;5055042;28;20021;-53
2022/05/18 01:16:57;;;;;;;5.38;1.90;;;;;;;;;;5058848;28;20037;-52
2022/05/18 01:19:34;;;;;;;4.95;1.52;;;;;;;;;;5051376;28;20088;-52
2022/05/18 01:22:09;;;;;;;3.92;1.80;;;;;;;;;;5051678;28;20029;-53
2022/05/18 01:24:40;;;;;;;3.25;1.63;;;;;;;;;;5049552;28;20416;-53
2022/05/18 01:27:06;;;;;;;8.25;2.38;;;;;;;;;;5046659;28;20028;-53
2022/05/18 01:29:32;;;;;;;3.72;1.52;;;;;;;;;;5040922;28;20026;-50
2022/05/18 01:32:00;;;;;;;3.95;1.85;;;;;;;;;;5046485;28;20032;-50
2022/05/18 01:34:28;;;;;;;4.35;1.95;;;;;;;;;;5049468;28;20438;-50
2022/05/18 01:36:54;;;;;;;3.97;1.85;;;;;;;;;;5046971;28;20044;-54
2022/05/18 01:39:50;;;;;;;5.05;1.70;;;;;;;;;;5043439;28;20121;-51
2022/05/18 01:42:28;;;;;;;4.57;1.75;;;;;;;;;;5044159;28;20377;-50
2022/05/18 01:44:54;;;;;;;5.65;2.33;;;;;;;;;;5040243;28;20044;-54
2022/05/18 01:47:21;;;;;;;4.68;1.80;;;;;;;;;;5039906;28;20110;-50
2022/05/18 01:49:48;;;;;;;3.70;1.70;;;;;;;;;;5057399;28;20029;-53
2022/05/18 01:52:14;;;;;;;4.10;1.70;;;;;;;;;;5052507;28;20053;-52
2022/05/18 01:54:41;;;;;;;8.75;1.70;;;;;;;;;;5050920;28;20063;-53
2022/05/18 01:57:08;;;;;;;5.45;1.50;;;;;;;;;;5049194;28;20090;-50
2022/05/18 01:59:34;;;;;;;5.05;1.73;;;;;;;;;;5054275;28;20484;-53
2022/05/18 02:02:00;;;;;;;2.80;1.73;;;;;;;;;;5054697;28;20035;-51
2022/05/18 02:04:27;;;;;;;3.58;1.40;;;;;;;;;;5054985;28;20492;-55
2022/05/18 02:06:53;;;;;;;5.15;1.48;;;;;;;;;;5049532;28;20028;-50
2022/05/18 02:09:20;;;;;;;2.85;1.45;;;;;;;;;;5050073;28;20020;-50
2022/05/18 02:11:46;;;;;;;4.13;1.77;;;;;;;;;;5042770;28;20024;-53
2022/05/18 02:14:12;;;;;;;2.53;1.10;;;;;;;;;;5062770;28;20029;-52
2022/05/18 02:16:38;;;;;;;2.00;1.40;;;;;;;;;;5046129;28;20048;-55
2022/05/18 02:19:05;;;;;;;6.18;1.35;;;;;;;;;;5043477;28;20037;-55
2022/05/18 02:21:31;;;;;;;3.45;1.55;;;;;;;;;;5048826;28;20033;-54
2022/05/18 02:23:57;;;;;;;2.17;1.25;;;;;;;;;;5049220;28;20036;-54
2022/05/18 02:26:23;;;;;;;5.97;1.48;;;;;;;;;;5038351;28;20083;-52
2022/05/18 02:28:49;;;;;;;8.95;1.40;;;;;;;;;;5051568;28;20025;-55
2022/05/18 02:31:15;;;;;;;6.60;2.10;;;;;;;;;;5054140;28;20017;-53
2022/05/18 02:33:41;;;;;;;5.22;1.45;;;;;;;;;;5051792;28;20029;-52
2022/05/18 02:36:08;;;;;;;2.30;1.17;;;;;;;;;;5046642;28;20063;-52
2022/05/18 02:38:34;;;;;;;4.40;1.30;;;;;;;;;;5046477;28;20489;-53
2022/05/18 02:41:01;;;;;;;2.75;1.30;;;;;;;;;;5047088;28;20640;-53
2022/05/18 02:43:27;;;;;;;2.42;1.35;;;;;;;;;;5057029;28;20083;-54
2022/05/18 02:46:07;;;;;;;3.75;1.33;;;;;;;;;;5058691;28;20032;-55
2022/05/18 02:48:33;;;;;;;2.35;0.98;;;;;;;;;;5048206;28;20052;-54
2022/05/18 02:50:59;;;;;;;6.38;1.50;;;;;;;;;;5044335;28;20028;-51
2022/05/18 02:53:25;;;;;;;7.70;1.60;;;;;;;;;;5048227;28;20404;-52
2022/05/18 02:56:07;;;;;;;3.33;1.23;;;;;;;;;;5057789;28;20033;-53
2022/05/18 02:58:34;;;;;;;4.30;1.10;;;;;;;;;;5053349;28;20028;-51
2022/05/18 03:01:01;;;;;;;2.60;1.02;;;;;;;;;;5058272;28;20029;-51
2022/05/18 03:03:27;;;;;;;2.30;1.20;;;;;;;;;;5049796;28;20476;-51
2022/05/18 03:05:52;;;;;;;2.35;1.20;;;;;;;;;;5056952;28;20029;-51
2022/05/18 03:08:18;;;;;;;5.07;1.35;;;;;;;;;;5038012;28;20020;-51
2022/05/18 03:10:44;;;;;;;1.50;0.80;;;;;;;;;;5049367;28;20025;-53
2022/05/18 03:13:10;;;;;;;3.97;1.10;;;;;;;;;;5056109;28;20051;-51
2022/05/18 03:15:36;;;;;;;2.25;1.00;;;;;;;;;;5064274;28;20040;-53
2022/05/18 03:18:02;;;;;;;4.82;1.05;;;;;;;;;;5045315;28;20036;-53
2022/05/18 03:25:57;;;;;;;3.95;0.88;;;;;;;;;;5053345;28;20392;-52
2022/05/18 03:28:23;;;;;;;3.70;1.52;;;;;;;;;;5044778;28;20028;-54
2022/05/18 03:30:49;;;;;;;1.33;1.10;;;;;;;;;;5050305;28;20033;-52
2022/05/18 03:33:15;;;;;;;2.33;0.70;;;;;;;;;;5041132;28;20032;-54
2022/05/18 03:35:41;;;;;;;4.63;1.00;;;;;;;;;;5043427;28;20440;-53
2022/05/18 03:38:07;;;;;;;1.98;0.70;;;;;;;;;;5051073;28;20021;-54
2022/05/18 03:40:36;;;;;;;2.72;0.90;;;;;;;;;;5043651;28;20033;-52
2022/05/18 03:43:03;;;;;;;1.90;1.15;;;;;;;;;;5048450;28;20037;-51
2022/05/18 03:45:29;;;;;;;2.53;0.93;;;;;;;;;;5056830;28;20060;-51
2022/05/18 03:47:55;;;;;;;3.33;1.17;;;;;;;;;;5044872;28;20078;-52
2022/05/18 03:50:21;;;;;;;3.28;0.80;;;;;;;;;;5036059;28;20474;-51
2022/05/18 03:52:47;;;;;;;3.58;0.82;;;;;;;;;;5049522;28;20071;-51
2022/05/18 03:55:13;;;;;;;4.95;1.33;;;;;;;;;;5059049;28;20021;-52
2022/05/18 03:57:39;;;;;;;5.43;1.05;;;;;;;;;;5044798;28;20036;-51
2022/05/18 04:00:08;;;;;;;3.67;1.02;;;;;;;;;;5048334;28;20025;-55
2022/05/18 04:02:34;;;;;;;3.20;0.60;;;;;;;;;;5044983;28;20071;-53
2022/05/18 04:05:00;;;;;;;3.25;1.02;;;;;;;;;;5037437;28;20022;-52
2022/05/18 04:07:26;;;;;;;1.55;0.85;;;;;;;;;;5049252;28;20042;-53
2022/05/18 04:09:52;;;;;;;1.95;1.00;;;;;;;;;;5053642;28;20103;-54
2022/05/18 04:12:18;;;;;;;4.38;1.25;;;;;;;;;;5045969;28;20108;-53
2022/05/18 04:14:44;;;;;;;2.40;0.90;;;;;;;;;;5059926;28;20134;-52
2022/05/18 04:17:10;;;;;;;1.75;0.75;;;;;;;;;;5049553;28;20040;-51
2022/05/18 04:19:36;;;;;;;2.20;1.02;;;;;;;;;;5052680;28;20024;-52
2022/05/18 04:22:02;;;;;;;1.95;0.80;;;;;;;;;;5038363;28;21646;-51
2022/05/18 04:24:28;;;;;;;2.67;0.85;;;;;;;;;;5053878;28;20039;-51
2022/05/18 04:26:54;;;;;;;1.60;0.88;;;;;;;;;;5049889;28;20053;-52
2022/05/18 04:29:20;;;;;;;1.00;0.73;;;;;;;;;;5057499;28;20037;-52
2022/05/18 04:31:46;;;;;;;3.20;1.27;;;;;;;;;;5050992;28;20082;-51
2022/05/18 04:34:12;;;;;;;5.00;1.30;;;;;;;;;;5049652;28;20209;-51
2022/05/18 04:36:38;;;;;;;4.25;0.98;;;;;;;;;;5053904;28;20047;-53
2022/05/18 04:39:04;;;;;;;1.02;0.80;;;;;;;;;;5043876;28;20484;-54
2022/05/18 04:41:30;;;;;;;1.83;1.00;;;;;;;;;;5056750;28;20652;-51
2022/05/18 04:43:56;;;;;;;1.83;0.82;;;;;;;;;;5053431;28;20029;-54
2022/05/18 04:46:22;;;;;;;4.53;1.00;;;;;;;;;;5051247;28;20025;-50
2022/05/18 04:48:48;;;;;;;1.75;1.10;;;;;;;;;;5050083;28;20035;-54
2022/05/18 04:51:14;;;;;;;2.97;1.00;;;;;;;;;;5049251;28;20392;-52
2022/05/18 04:53:40;;;;;;;6.22;1.00;;;;;;;;;;5050199;28;20064;-54
2022/05/18 04:56:06;;;;;;;2.22;0.95;;;;;;;;;;5048340;28;20087;-54
2022/05/18 04:58:34;;;;;;;2.42;1.02;;;;;;;;;;5045700;28;20021;-53
2022/05/18 05:01:02;;;;;;;2.22;1.00;;;;;;;;;;5051430;28;20040;-51
2022/05/18 05:03:28;;;;;;;1.83;1.10;;;;;;;;;;5050310;28;20037;-54
2022/05/18 05:05:54;;;;;;;3.92;1.00;;;;;;;;;;5055905;28;20037;-51
2022/05/18 05:08:20;;;;;;;2.35;1.00;;;;;;;;;;5047777;28;20047;-52
2022/05/18 05:10:46;;;;;;;1.90;1.02;;;;;;;;;;5042424;28;20042;-54
2022/05/18 05:13:12;;;;;;;3.08;0.95;;;;;;;;;;5052512;28;20469;-52
2022/05/18 05:15:38;;;;;;;3.85;0.88;;;;;;;;;;5059846;28;20396;-51
2022/05/18 05:18:04;;;;;;;2.25;0.93;;;;;;;;;;5041859;28;20036;-51
2022/05/18 05:20:30;;;;;;;1.67;0.80;;;;;;;;;;5044896;28;20029;-54
2022/05/18 05:22:56;;;;;;;1.50;0.77;;;;;;;;;;5047694;28;20025;-52
2022/05/18 05:25:22;;;;;;;4.60;1.33;;;;;;;;;;5042572;28;20029;-51
2022/05/18 05:27:48;;;;;;;2.47;1.00;;;;;;;;;;5053522;28;20036;-51
2022/05/18 05:30:15;;;;;;;2.88;0.90;;;;;;;;;;5053211;28;20029;-51
2022/05/18 05:32:41;;;;;;;4.22;0.90;;;;;;;;;;5045859;28;20477;-53
2022/05/18 05:35:08;;;;;;;1.00;0.80;;;;;;;;;;5035581;28;20045;-51
2022/05/18 05:37:34;;;;;;;2.70;1.00;;;;;;;;;;5046609;28;20029;-52
2022/05/18 05:40:00;;;;;;;3.22;1.08;;;;;;;;;;5044521;28;20040;-54
2022/05/18 05:42:26;;;;;;;4.75;1.27;;;;;;;;;;5053386;28;20104;-53
2022/05/18 05:44:52;;;;;;;3.53;0.80;;;;;;;;;;5047537;28;20017;-53
2022/05/18 05:47:18;;;;;;;2.30;1.10;;;;;;;;;;5049893;28;20037;-54
2022/05/18 05:49:44;;;;;;;1.63;0.82;;;;;;;;;;5049173;28;20036;-54
2022/05/18 05:52:11;;;;;;;3.28;1.20;;;;;;;;;;5042785;28;20041;-52
2022/05/18 05:54:37;;;;;;;3.15;1.05;;;;;;;;;;5045721;28;20160;-52
2022/05/18 05:57:04;;;;;;;3.58;0.90;;;;;;;;;;5046419;28;20493;-51
2022/05/18 05:59:34;;;;;;;3.15;1.48;;;;;;;;;;5045233;28;20370;-51
2022/05/18 06:02:01;;;;;;;2.55;1.00;;;;;;;;;;5050507;28;20079;-54
2022/05/18 06:04:29;;;;;;;2.10;0.98;;;;;;;;;;5051115;28;20049;-51
2022/05/18 06:06:55;;;;;;;3.30;1.00;;;;;;;;;;5043402;28;20076;-51
2022/05/18 06:09:21;;;;;;;3.90;1.02;;;;;;;;;;5049642;28;20025;-51
2022/05/18 06:11:48;;;;;;;4.00;1.20;;;;;;;;;;5047424;28;20059;-53
2022/05/18 06:14:14;;;;;;;1.85;1.02;;;;;;;;;;5048628;28;20025;-52
2022/05/18 06:16:41;;;;;;;3.45;1.30;;;;;;;;;;5050056;28;20499;-54
2022/05/18 06:19:07;;;;;;;3.22;1.08;;;;;;;;;;5050869;28;20031;-51
2022/05/18 06:21:33;;;;;;;3.92;1.67;;;;;;;;;;5050141;28;20035;-52
2022/05/18 06:23:59;;;;;;;2.85;1.27;;;;;;;;;;5040648;28;20090;-52
2022/05/18 06:26:26;;;;;;;4.88;1.20;;;;;;;;;;5043566;28;20029;-54
2022/05/18 06:28:52;;;;;;;3.95;1.10;;;;;;;;;;5040326;28;20385;-52
2022/05/18 06:31:18;;;;;;;4.03;1.40;;;;;;;;;;5045247;28;20029;-50
2022/05/18 06:33:44;;;;;;;2.75;1.38;;;;;;;;;;5037663;28;20075;-50
2022/05/18 06:36:11;;;;;;;4.30;1.30;;;;;;;;;;5043614;28;20032;-53
2022/05/18 06:38:37;;;;;;;6.25;1.40;;;;;;;;;;5040311;28;20036;-51
2022/05/18 06:41:22;;;;;;;6.07;1.63;;;;;;;;;;5040634;28;20030;-55
2022/05/18 06:43:48;;;;;;;3.38;1.40;;;;;;;;;;5038172;28;20117;-51
2022/05/18 06:46:14;;;;;;;3.05;1.23;;;;;;;;;;5042410;28;20025;-54
2022/05/18 06:48:41;;;;;;;4.40;1.60;;;;;;;;;;5047033;28;20067;-53
2022/05/18 06:51:07;;;;;;;2.72;1.10;;;;;;;;;;5047829;28;20066;-52
2022/05/18 06:53:34;;;;;;;4.38;1.50;;;;;;;;;;5046996;28;20041;-53
2022/05/18 06:55:59;;;;;;;5.70;1.50;;;;;;;;;;5034871;28;20024;-53
2022/05/18 06:58:26;;;;;;;5.00;1.23;;;;;;;;;;5041314;28;20036;-53
2022/05/18 07:00:52;;;;;;;4.07;1.10;;;;;;;;;;5040979;28;20484;-54
2022/05/18 07:03:18;;;;;;;3.60;1.13;;;;;;;;;;5046379;28;20033;-51
2022/05/18 07:05:44;;;;;;;4.13;1.23;;;;;;;;;;5050982;28;20025;-54
2022/05/18 07:08:10;;;;;;;4.18;1.50;;;;;;;;;;5037690;28;20029;-53
2022/05/18 07:10:36;;;;;;;2.35;1.27;;;;;;;;;;5043685;28;20451;-52
2022/05/18 07:13:04;;;;;;;5.70;1.67;;;;;;;;;;5046584;28;20065;-51
2022/05/18 07:15:30;;;;;;;4.68;1.50;;;;;;;;;;5035711;28;20036;-53
2022/05/18 07:17:56;;;;;;;3.30;1.50;;;;;;;;;;5047205;28;20025;-53
2022/05/18 07:20:22;;;;;;;3.30;1.45;;;;;;;;;;5053914;28;20075;-55
2022/05/18 07:22:48;;;;;;;3.97;1.48;;;;;;;;;;5048307;28;20037;-51
2022/05/18 07:25:14;;;;;;;5.57;1.52;;;;;;;;;;5050047;28;20032;-53
2022/05/18 07:27:41;;;;;;;3.58;1.80;;;;;;;;;;5048398;28;20196;-51
2022/05/18 07:30:07;;;;;;;2.88;1.73;;;;;;;;;;5037587;28;20024;-51
2022/05/18 07:32:33;;;;;;;3.47;1.55;;;;;;;;;;5039624;28;20051;-51
2022/05/18 07:34:59;;;;;;;3.33;1.40;;;;;;;;;;5042601;28;20021;-53
2022/05/18 07:37:25;;;;;;;3.67;1.30;;;;;;;;;;5047654;28;20495;-54
2022/05/18 07:39:51;;;;;;;6.25;2.17;;;;;;;;;;5037310;28;20127;-54
2022/05/18 07:42:17;;;;;;;3.03;1.50;;;;;;;;;;5039996;28;20087;-54
2022/05/18 07:44:43;;;;;;;5.70;1.80;;;;;;;;;;5042094;28;20036;-50
2022/05/18 07:47:09;;;;;;;6.53;1.83;;;;;;;;;;5044639;28;20384;-52
2022/05/18 07:49:37;;;;;;;4.20;1.42;;;;;;;;;;5046517;28;20368;-53
2022/05/18 07:52:03;;;;;;;6.75;1.80;;;;;;;;;;5041095;28;20140;-54
2022/05/18 07:54:29;;;;;;;6.50;1.73;;;;;;;;;;5042192;28;20037;-53
2022/05/18 07:56:55;;;;;;;3.28;1.45;;;;;;;;;;5042637;28;20168;-54
2022/05/18 07:59:21;;;;;;;6.38;1.52;;;;;;;;;;5048677;28;20020;-53
2022/05/18 08:01:47;;;;;;;2.97;1.50;;;;;;;;;;5048325;28;20037;-52
2022/05/18 08:04:13;;;;;;;6.88;1.60;;;;;;;;;;5052702;28;20045;-51
2022/05/18 08:06:39;;;;;;;6.93;1.60;;;;;;;;;;5051621;28;20499;-54
2022/05/18 08:09:06;;;;;;;3.53;1.55;;;;;;;;;;5041688;28;20026;-54
2022/05/18 08:15:05;;;;;;;4.07;1.70;;;;;;;;;;5045865;28;20043;-52
2022/05/18 08:17:17;;;;;;;5.65;1.80;;;;;;;;;;5053008;28;20033;-50
2022/05/18 08:19:44;;;;;;;6.80;2.13;;;;;;;;;;5053000;28;20036;-54
2022/05/18 08:22:10;;;;;;;5.32;1.67;;;;;;;;;;5053773;28;20384;-55
2022/05/18 08:24:36;;;;;;;5.72;2.13;;;;;;;;;;5047512;28;20528;-54
2022/05/18 08:27:07;;;;;;;3.33;1.80;;;;;;;;;;5054756;28;20548;-53
2022/05/18 08:29:33;;;;;;;3.63;1.98;;;;;;;;;;5050606;28;20096;-51
2022/05/18 08:32:00;;;;;;;6.55;2.55;;;;;;;;;;5039497;28;20020;-54
2022/05/18 08:34:26;;;;;;;4.15;2.53;;;;;;;;;;5046929;28;20112;-54
2022/05/18 08:36:52;;;;;;;4.82;2.20;;;;;;;;;;5048933;28;20481;-53
2022/05/18 08:39:18;;;;;;;4.78;2.20;;;;;;;;;;5043175;28;20033;-53
2022/05/18 08:41:45;;;;;;;4.43;2.00;;;;;;;;;;5034611;28;20040;-54
2022/05/18 08:44:20;;;;;;;6.80;1.90;;;;;;;;;;5047146;28;20032;-52
2022/05/18 08:46:52;;;;;;;7.97;2.45;;;;;;;;;;5049180;28;20479;-54
2022/05/18 08:49:48;;;;;;;2.55;1.75;;;;;;;;;;5042294;28;20024;-54
2022/05/18 08:52:29;;;;;;;5.20;2.25;;;;;;;;;;5040248;28;20048;-54
2022/05/18 08:55:14;;;;;;;7.05;2.65;;;;;;;;;;5045121;28;20025;-54
2022/05/18 08:57:43;;;;;;;4.78;2.42;;;;;;;;;;5043815;28;20033;-50
2022/05/18 09:00:14;;;;;;;4.53;2.15;;;;;;;;;;5043740;28;20665;-54
2022/05/18 09:02:41;;;;;;;4.80;2.60;;;;;;;;;;5042500;28;20389;-54
2022/05/18 09:05:30;;;;;;;3.13;2.03;;;;;;;;;;5037898;28;20033;-54
2022/05/18 09:08:07;;;;;;;5.15;2.47;;;;;;;;;;5045318;28;20479;-54
2022/05/18 09:10:40;;;;;;;7.70;2.35;;;;;;;;;;5046438;28;20040;-51
2022/05/18 09:13:06;;;;;;;4.88;2.17;;;;;;;;;;5040615;28;20025;-55
2022/05/18 09:15:39;;;;;;;7.35;2.30;;;;;;;;;;5043671;28;20071;-54
2022/05/18 09:18:27;;;;;;;7.47;2.35;;;;;;;;;;5046163;28;20041;-55
2022/05/18 09:21:04;;;;;;;3.08;1.90;;;;;;;;;;5037377;28;20115;-54
2022/05/18 09:23:49;;;;;;;5.13;1.88;;;;;;;;;;5048220;28;20104;-52
2022/05/18 09:26:31;;;;;;;6.93;2.50;;;;;;;;;;5051972;28;20029;-54
2022/05/18 09:29:10;;;;;;;3.42;2.10;;;;;;;;;;5039922;28;20595;-54
2022/05/18 09:32:08;;;;;;;5.68;2.20;;;;;;;;;;5043004;28;20033;-56
2022/05/18 09:34:54;;;;;;;6.93;2.90;;;;;;;;;;5033574;28;20445;-55
2022/05/18 09:37:28;;;;;;;5.63;3.00;;;;;;;;;;5046481;28;20082;-54
2022/05/18 09:39:59;;;;;;;4.35;2.33;;;;;;;;;;5037736;28;20037;-53
2022/05/18 09:42:27;;;;;;;5.40;2.47;;;;;;;;;;5030184;28;20052;-55
2022/05/18 09:44:58;;;;;;;4.32;2.53;;;;;;;;;;5039992;28;20025;-56
2022/05/18 09:47:26;;;;;;;4.85;2.60;;;;;;;;;;5033021;28;21743;-54
2022/05/18 09:49:53;;;;;;;5.70;3.08;;;;;;;;;;5028609;28;20753;-54
2022/05/18 09:52:21;;;;;;;7.68;2.67;;;;;;;;;;5033731;28;20037;-52
2022/05/18 09:54:47;;;;;;;6.97;2.58;;;;;;;;;;5038572;28;20060;-55
2022/05/18 09:57:24;;;;;;;8.30;2.95;;;;;;;;;;5036957;28;20033;-54
2022/05/18 09:59:55;;;;;;;6.18;3.28;;;;;;;;;;5028749;28;20048;-54
2022/05/18 10:07:54;;;;;;;4.03;2.75;;;;;;;;;;5029877;28;20075;-52
2022/05/18 10:10:20;;;;;;;7.10;2.75;;;;;;;;;;5028708;28;20132;-54
2022/05/18 10:12:48;;;;;;;7.38;2.88;;;;;;;;;;5044486;28;20079;-55
2022/05/18 10:15:23;;;;;;;5.75;2.90;;;;;;;;;;5047626;28;20484;-51
2022/05/18 10:17:51;;;;;;;6.93;3.58;;;;;;;;;;5045777;28;20032;-54
2022/05/18 10:20:31;;;;;;;8.60;3.38;;;;;;;;;;5048610;28;20074;-55
2022/05/18 10:22:58;;;;;;;9.20;3.53;;;;;;;;;;5034746;28;20037;-53
2022/05/18 10:25:24;;;;;;;8.23;4.47;;;;;;;;;;5035346;28;20031;-54
2022/05/18 10:27:50;;;;;;;7.35;3.53;;;;;;;;;;5038153;28;20014;-55
2022/05/18 10:30:31;;;;;;;14.52;3.83;;;;;;;;;;5037168;28;20029;-51
2022/05/18 10:33:03;;;;;;;7.88;3.95;;;;;;;;;;5054105;28;20025;-55
2022/05/18 10:35:38;;;;;;;8.02;3.95;;;;;;;;;;5042605;28;20480;-55
2022/05/18 10:38:15;;;;;;;6.45;3.50;;;;;;;;;;5045298;28;20039;-53
2022/05/18 10:40:41;;;;;;;6.50;3.85;;;;;;;;;;5045779;28;20190;-54
2022/05/18 10:43:22;;;;;;;5.20;3.30;;;;;;;;;;5047396;28;20030;-55
2022/05/18 10:46:00;;;;;;;7.80;3.58;;;;;;;;;;5044235;28;20116;-52
2022/05/18 10:48:27;;;;;;;7.30;3.80;;;;;;;;;;5046628;28;20036;-55
2022/05/18 10:51:19;;;;;;;10.43;3.92;;;;;;;;;;5035215;28;20029;-52
2022/05/18 10:53:46;;;;;;;7.57;3.35;;;;;;;;;;5052192;28;20056;-55
2022/05/18 10:56:14;;;;;;;6.30;3.15;;;;;;;;;;5043427;28;20071;-55
2022/05/18 10:58:45;;;;;;;9.25;4.45;;;;;;;;;;5046240;28;20029;-54
2022/05/18 11:01:11;;;;;;;4.88;3.85;;;;;;;;;;5039204;28;20037;-55
2022/05/18 11:03:56;;;;;;;6.43;3.72;;;;;;;;;;5041816;28;20029;-53
2022/05/18 11:06:30;;;;;;;6.43;3.85;;;;;;;;;;5043431;28;20148;-54
2022/05/18 11:08:57;;;;;;;9.45;3.65;;;;;;;;;;5045160;28;20079;-54
2022/05/18 11:11:41;;;;;;;8.63;3.80;;;;;;;;;;5043192;28;20036;-54
2022/05/18 11:14:29;;;;;;;5.18;3.17;;;;;;;;;;5042631;28;20033;-54
2022/05/18 11:17:06;;;;;;;6.00;3.72;;;;;;;;;;5050530;28;20062;-54
2022/05/18 11:19:38;;;;;;;4.93;3.05;;;;;;;;;;5049794;28;20025;-54
2022/05/18 11:22:18;;;;;;;6.78;3.22;;;;;;;;;;5031766;28;20024;-53
2022/05/18 11:24:46;;;;;;;6.28;2.70;;;;;;;;;;5043926;28;20095;-54
2022/05/18 11:27:25;;;;;;;4.93;2.67;;;;;;;;;;5041761;28;20032;-54
2022/05/18 11:30:03;;;;;;;5.38;2.70;;;;;;;;;;5043884;28;20052;-55
2022/05/18 11:32:48;;;;;;;7.18;3.00;;;;;;;;;;5049548;28;20423;-55
2022/05/18 11:35:21;;;;;;;9.77;3.60;;;;;;;;;;5034518;28;20021;-55
2022/05/18 11:38:01;;;;;;;4.22;2.58;;;;;;;;;;5040217;28;20043;-55
2022/05/18 11:40:33;;;;;;;5.78;3.13;;;;;;;;;;5046831;28;20535;-54
2022/05/18 11:43:25;;;;;;;4.35;2.83;;;;;;;;;;5038846;28;20044;-55
2022/05/18 11:46:09;;;;;;;6.43;3.28;;;;;;;;;;5045677;28;20029;-56
2022/05/18 11:48:45;;;;;;;5.38;2.92;;;;;;;;;;5055595;28;20025;-55
2022/05/18 11:51:30;;;;;;;6.20;2.50;;;;;;;;;;5049523;28;20029;-55
2022/05/18 11:54:08;;;;;;;6.82;3.05;;;;;;;;;;5054141;28;20044;-55
2022/05/18 11:56:49;;;;;;;4.10;2.33;;;;;;;;;;5040546;28;20024;-54
2022/05/18 11:59:44;;;;;;;4.78;2.25;;;;;;;;;;5043659;28;20033;-56
2022/05/18 12:02:29;;;;;;;3.00;2.10;;;;;;;;;;5045256;28;20033;-56
2022/05/18 12:05:10;;;;;;;3.60;1.98;;;;;;;;;;5046848;28;20531;-55
2022/05/18 12:07:48;;;;;;;5.20;2.55;;;;;;;;;;5045996;28;20033;-56
2022/05/18 12:10:14;;;;;;;5.28;2.88;;;;;;;;;;5046227;28;20075;-56
2022/05/18 12:12:44;;;;;;;3.17;2.05;;;;;;;;;;5049733;28;20033;-55
2022/05/18 12:15:10;;;;;;;3.35;2.28;;;;;;;;;;5041189;28;20017;-55
2022/05/18 12:17:43;;;;;;;3.25;2.30;;;;;;;;;;5039677;28;20035;-54
2022/05/18 12:20:14;;;;;;;4.07;2.43;;;;;;;;;;5049674;28;20048;-56
2022/05/18 12:22:46;;;;;;;3.83;2.47;;;;;;;;;;5051737;28;20032;-56
2022/05/18 12:25:14;;;;;;;2.53;1.90;;;;;;;;;;5053962;28;20116;-54
2022/05/18 12:27:40;;;;;;;5.47;2.40;;;;;;;;;;5050830;28;20504;-55
2022/05/18 12:30:08;;;;;;;3.45;2.20;;;;;;;;;;5050768;28;20131;-56
2022/05/18 12:32:35;;;;;;;5.70;2.67;;;;;;;;;;5040186;28;20029;-55
2022/05/18 12:35:06;;;;;;;3.97;2.28;;;;;;;;;;5044064;28;20033;-56
2022/05/18 12:37:42;;;;;;;3.85;2.08;;;;;;;;;;5044642;28;20036;-55
2022/05/18 12:40:17;;;;;;;4.40;2.03;;;;;;;;;;5045754;28;20036;-54
2022/05/18 12:42:49;;;;;;;3.92;2.20;;;;;;;;;;5044392;28;20033;-56
2022/05/18 12:45:22;;;;;;;4.10;2.30;;;;;;;;;;5053262;28;20055;-54
2022/05/18 12:47:52;;;;;;;5.47;2.03;;;;;;;;;;5051422;28;20033;-56
2022/05/18 12:50:29;;;;;;;3.88;2.33;;;;;;;;;;5041593;28;20532;-54
2022/05/18 12:52:58;;;;;;;5.43;1.88;;;;;;;;;;5057564;28;20590;-53
2022/05/18 12:55:27;;;;;;;8.18;2.60;;;;;;;;;;5040550;28;20443;-55
2022/05/18 12:57:56;;;;;;;3.63;2.20;;;;;;;;;;5052613;28;20033;-56
2022/05/18 13:00:25;;;;;;;5.53;2.00;;;;;;;;;;5043796;28;20109;-53
2022/05/18 13:02:56;;;;;;;3.92;2.30;;;;;;;;;;5039761;28;20029;-56
2022/05/18 13:05:25;;;;;;;4.80;2.15;;;;;;;;;;5063950;28;20024;-53
2022/05/18 13:07:51;;;;;;;5.20;2.00;;;;;;;;;;5047999;28;20025;-54
2022/05/18 13:10:20;;;;;;;3.72;1.70;;;;;;;;;;5052485;28;20048;-54
2022/05/18 13:12:47;;;;;;;3.65;1.52;;;;;;;;;;5045314;28;20033;-54
2022/05/18 13:15:37;;;;;;;5.00;1.85;;;;;;;;;;5052490;28;20100;-54
2022/05/18 13:18:07;;;;;;;7.30;1.60;;;;;;;;;;5043389;28;20040;-54
2022/05/18 13:20:46;;;;;;;4.93;1.50;;;;;;;;;;5042046;28;20025;-52
2022/05/18 13:23:12;;;;;;;3.15;1.40;;;;;;;;;;5050005;28;20053;-54
2022/05/18 13:25:41;;;;;;;4.72;1.50;;;;;;;;;;5040762;28;20089;-53
2022/05/18 13:28:10;;;;;;;3.45;1.60;;;;;;;;;;5048487;28;20025;-53
2022/05/18 13:30:47;;;;;;;3.13;1.48;;;;;;;;;;5051616;28;20029;-54
2022/05/18 13:33:14;;;;;;;3.53;1.83;;;;;;;;;;5051329;28;20032;-53
2022/05/18 13:35:40;;;;;;;4.40;1.52;;;;;;;;;;5046058;28;20511;-55
2022/05/18 13:38:06;;;;;;;4.15;1.95;;;;;;;;;;5044279;28;20060;-54
2022/05/18 13:40:32;;;;;;;3.63;1.95;;;;;;;;;;5047096;28;20040;-54
2022/05/18 13:43:00;;;;;;;5.80;1.50;;;;;;;;;;5053202;28;20059;-55
2022/05/18 13:45:27;;;;;;;6.85;2.05;;;;;;;;;;5047217;28;20039;-55
2022/05/18 13:47:58;;;;;;;4.20;1.90;;;;;;;;;;5050388;28;20037;-54
2022/05/18 13:50:36;;;;;;;4.22;1.60;;;;;;;;;;5039541;28;20028;-54
2022/05/18 13:53:04;;;;;;;5.25;1.90;;;;;;;;;;5051815;28;20037;-54
2022/05/18 13:55:35;;;;;;;5.38;1.33;;;;;;;;;;5051753;28;20407;-54
2022/05/18 13:58:07;;;;;;;2.67;1.40;;;;;;;;;;5046107;28;20431;-55
2022/05/18 14:00:34;;;;;;;3.65;1.30;;;;;;;;;;5041045;28;20041;-54
2022/05/18 14:03:01;;;;;;;4.18;1.85;;;;;;;;;;5047527;28;20476;-53
2022/05/18 14:05:31;;;;;;;3.42;1.60;;;;;;;;;;5048568;28;20033;-53
2022/05/18 14:07:58;;;;;;;2.40;1.20;;;;;;;;;;5046645;28;20460;-55
2022/05/18 14:10:27;;;;;;;5.28;1.27;;;;;;;;;;5038822;28;20591;-55
2022/05/18 14:12:56;;;;;;;3.38;1.27;;;;;;;;;;5042222;28;20083;-55
2022/05/18 14:15:22;;;;;;;2.85;1.52;;;;;;;;;;5040737;28;20055;-55
2022/05/18 14:17:49;;;;;;;3.65;1.30;;;;;;;;;;5047377;28;20087;-55
2022/05/18 14:20:26;;;;;;;6.07;1.10;;;;;;;;;;5053151;28;20037;-54
2022/05/18 14:22:57;;;;;;;3.47;1.27;;;;;;;;;;5036621;28;20432;-55
2022/05/18 14:25:27;;;;;;;3.22;1.30;;;;;;;;;;5041063;28;20030;-54
2022/05/18 14:27:55;;;;;;;1.88;1.20;;;;;;;;;;5047210;28;21680;-55
2022/05/18 14:30:22;;;;;;;2.42;1.27;;;;;;;;;;5040970;28;20060;-53
2022/05/18 14:32:55;;;;;;;2.78;1.33;;;;;;;;;;5047923;28;20133;-53
2022/05/18 14:35:23;;;;;;;1.63;1.02;;;;;;;;;;5041999;28;20025;-52
2022/05/18 14:37:51;;;;;;;2.85;1.52;;;;;;;;;;5043926;28;20491;-54
2022/05/18 14:40:20;;;;;;;1.75;1.10;;;;;;;;;;5043443;28;20020;-52
2022/05/18 14:42:48;;;;;;;6.30;1.25;;;;;;;;;;5049006;28;20036;-53
2022/05/18 14:45:23;;;;;;;3.33;1.50;;;;;;;;;;5048526;28;20496;-53
2022/05/18 14:47:52;;;;;;;4.63;1.77;;;;;;;;;;5042989;28;20094;-54
2022/05/18 14:50:23;;;;;;;1.98;1.25;;;;;;;;;;5044988;28;20033;-54
2022/05/18 14:52:55;;;;;;;4.18;1.90;;;;;;;;;;5040733;28;20041;-53
2022/05/18 14:55:29;;;;;;;2.73;1.63;;;;;;;;;;5038706;28;20029;-53
2022/05/18 14:57:58;;;;;;;2.47;1.60;;;;;;;;;;5044730;28;20130;-54
2022/05/18 15:00:35;;;;;;;1.88;1.33;;;;;;;;;;5047305;28;20533;-54
2022/05/18 15:03:07;;;;;;;4.30;1.83;;;;;;;;;;5044523;28;20041;-53
2022/05/18 15:05:34;;;;;;;4.50;1.70;;;;;;;;;;5043132;28;20032;-52
2022/05/18 15:08:01;;;;;;;6.47;1.98;;;;;;;;;;5035646;28;20869;-53
2022/05/18 15:10:35;;;;;;;4.65;2.10;;;;;;;;;;5041293;28;20036;-54